Time;durP1;ratioP1;P1;durP2;ratioP2;P2;SDS_P1;SDS_P2;PMS_P1;PMS_P2;Temp;Humidity;BMP_temperature;BMP_pressure;BME280_temperature;BME280_humidity;BME280_pressure;Samples;Min_cycle;Max_cycle;Signal;HPM_P1;HPM_P2
2021/07/15 00:00:16;;;;;;;1.60;1.00;;;20.00;99.90;;;19.33;100.00;99962.56;3518790;39;102113;-82
2021/07/15 00:02:43;;;;;;;2.53;1.08;;;19.40;99.90;;;19.32;100.00;99968.22;3529618;39;100154;-85
2021/07/15 00:05:15;;;;;;;1.08;1.02;;;20.60;99.90;;;19.18;100.00;99969.38;3537128;39;102739;-84
2021/07/15 00:07:42;;;;;;;1.10;1.00;;;19.50;99.90;;;19.09;100.00;99976.13;3627823;22;107263;-81
2021/07/15 00:10:19;;;;;;;1.02;0.90;;;19.50;99.90;;;19.15;100.00;99988.84;3557341;39;100572;-82
2021/07/15 00:12:49;;;;;;;1.88;1.13;;;19.50;99.90;;;19.08;100.00;99985.31;3551300;39;99991;-82
2021/07/15 00:15:20;;;;;;;2.78;1.20;;;19.50;99.90;;;19.04;100.00;99978.69;3556004;39;100806;-83
2021/07/15 00:17:48;;;;;;;0.60;0.60;;;19.40;99.90;;;18.92;100.00;99970.41;3569229;39;100914;-85
2021/07/15 00:20:18;;;;;;;1.48;1.23;;;20.50;99.90;;;18.93;100.00;99970.19;3551628;39;100660;-84
2021/07/15 00:22:47;;;;;;;2.35;1.02;;;19.40;99.90;;;18.95;100.00;99970.00;3554441;39;100021;-85
2021/07/15 00:25:17;;;;;;;0.90;0.82;;;19.30;99.90;;;18.96;100.00;99975.19;3563461;39;100112;-84
2021/07/15 00:27:45;;;;;;;1.90;1.05;;;19.30;99.90;;;18.92;100.00;99970.41;3557338;39;101510;-84
2021/07/15 00:30:14;;;;;;;3.40;1.52;;;19.20;99.90;;;18.96;100.00;99966.22;3564317;39;100402;-82
2021/07/15 00:32:42;;;;;;;1.00;0.90;;;19.20;99.90;;;19.00;100.00;99970.16;3559813;39;99946;-85
2021/07/15 00:35:11;;;;;;;1.40;1.23;;;19.40;99.90;;;19.02;100.00;99963.47;3559603;39;100127;-86
2021/07/15 00:37:40;;;;;;;2.00;1.25;;;19.20;99.90;;;19.10;100.00;99945.25;3567753;39;101383;-81
2021/07/15 00:40:10;;;;;;;1.80;1.17;;;19.20;99.90;;;19.13;100.00;99945.66;3626092;22;105078;-82
2021/07/15 00:42:38;;;;;;;2.10;1.13;;;19.20;99.90;;;19.07;100.00;99943.81;3550532;39;99975;-82
2021/07/15 00:45:11;;;;;;;1.08;0.90;;;19.20;99.90;;;19.11;100.00;99938.78;3552135;39;101180;-85
2021/07/15 00:47:39;;;;;;;1.10;1.00;;;19.20;99.90;;;19.01;100.00;99953.69;3590766;22;103423;-83
2021/07/15 00:50:10;;;;;;;1.17;1.00;;;20.40;99.90;;;19.01;100.00;99944.72;3565064;39;100538;-82
2021/07/15 00:52:41;;;;;;;1.75;0.98;;;19.20;99.90;;;19.07;100.00;99943.81;3541591;22;104672;-85
2021/07/15 00:55:14;;;;;;;1.15;1.05;;;19.20;99.90;;;19.02;100.00;99930.94;3589733;22;102623;-82
2021/07/15 00:57:42;;;;;;;1.80;1.35;;;19.10;99.90;;;18.99;100.00;99928.66;3543988;39;101161;-83
2021/07/15 01:00:12;;;;;;;2.10;1.30;;;19.20;99.90;;;18.95;100.00;99922.00;3555795;39;100709;-86
2021/07/15 01:02:39;;;;;;;1.35;1.05;;;19.10;99.90;;;18.93;100.00;99920.56;3592381;22;101535;-85
2021/07/15 01:05:11;;;;;;;1.15;0.80;;;19.20;99.90;;;18.85;100.00;99910.00;3579479;22;105637;-81
2021/07/15 01:07:39;;;;;;;1.30;1.20;;;19.00;99.90;;;18.74;100.00;99916.97;3647238;22;105354;-86
2021/07/15 01:10:10;;;;;;;1.63;1.20;;;19.00;99.90;;;18.69;100.00;99905.97;3552900;39;100863;-86
2021/07/15 01:12:56;;;;;;;1.45;1.27;;;18.90;99.90;;;18.69;100.00;99916.81;3584904;22;104992;-87
2021/07/15 01:15:30;;;;;;;1.90;1.48;;;19.90;99.90;;;18.73;100.00;99922.63;3631480;22;105744;-86
2021/07/15 01:18:10;;;;;;;2.17;1.33;;;18.50;99.90;;;18.75;100.00;99907.81;3562535;39;101231;-85
2021/07/15 01:21:37;;;;;;;1.67;1.35;;;19.80;99.90;;;18.74;100.00;99895.31;3570571;39;100354;-83
2021/07/15 01:24:53;;;;;;;1.52;1.40;;;18.70;99.90;;;18.79;100.00;99900.88;3554789;39;100122;-82
2021/07/15 01:27:48;;;;;;;1.23;1.13;;;18.10;99.90;;;18.75;100.00;99899.69;3547018;39;100922;-83
2021/07/15 01:30:19;;;;;;;1.40;1.20;;;19.30;99.90;;;18.75;100.00;99901.56;3614449;22;101786;-84
2021/07/15 01:33:02;;;;;;;1.77;1.50;;;19.80;99.90;;;18.76;100.00;99912.19;3442058;22;107465;-83
2021/07/15 01:35:37;;;;;;;2.22;1.65;;;18.70;99.90;;;18.79;100.00;99917.13;3486511;22;106863;-87
2021/07/15 01:38:06;;;;;;;1.50;1.25;;;18.70;99.90;;;18.74;100.00;99913.44;3558719;39;101178;-81
2021/07/15 01:40:43;;;;;;;1.65;1.17;;;18.80;99.90;;;18.77;100.00;99913.84;3545696;39;101170;-87
2021/07/15 01:43:17;;;;;;;1.73;1.42;;;19.60;99.90;;;18.73;100.00;99907.19;3538107;39;102577;-82
2021/07/15 01:48:14;;;;;;;2.72;1.42;;;18.90;99.90;;;18.67;100.00;99907.25;3551097;22;102783;-88
2021/07/15 01:50:41;;;;;;;2.45;1.40;;;18.80;99.90;;;18.80;100.00;99907.13;3614773;22;102336;-86
2021/07/15 01:53:09;;;;;;;4.55;1.40;;;19.30;99.90;;;18.83;100.00;99907.53;3713394;22;106722;-86
2021/07/15 01:55:40;;;;;;;2.75;1.30;;;19.90;99.90;;;18.73;100.00;99919.91;3610331;22;100236;-88
2021/07/15 01:58:10;;;;;;;3.75;1.23;;;19.10;99.90;;;18.78;100.00;99923.63;3600692;22;101992;-87
2021/07/15 02:00:39;;;;;;;3.10;1.50;;;18.80;99.90;;;18.72;100.00;99920.97;3632110;22;104766;-82
2021/07/15 02:03:10;;;;;;;1.15;1.05;;;19.00;99.90;;;18.76;100.00;99922.19;3571258;39;100607;-83
2021/07/15 02:05:42;;;;;;;2.45;1.50;;;19.00;99.90;;;18.77;100.00;99924.69;3498872;22;107317;-86
2021/07/15 02:08:11;;;;;;;2.20;1.30;;;19.00;99.90;;;18.69;100.00;99918.69;3564549;39;101006;-83
2021/07/15 02:11:16;;;;;;;6.45;1.60;;;19.00;99.90;;;18.76;100.00;99924.91;3377904;22;106412;-87
2021/07/15 02:13:54;;;;;;;3.72;1.60;;;19.00;99.90;;;18.69;100.00;99924.09;3727629;22;1158307;-84
2021/07/15 02:16:21;;;;;;;1.70;1.30;;;20.20;99.90;;;18.69;100.00;99924.09;3571210;39;101189;-87
2021/07/15 02:18:50;;;;;;;1.58;1.42;;;19.20;99.90;;;18.66;100.00;99914.56;3630951;22;105354;-83
2021/07/15 02:21:19;;;;;;;1.52;1.27;;;19.00;99.90;;;18.63;100.00;99913.09;3588239;22;105142;-86
2021/07/15 02:23:47;;;;;;;2.28;1.40;;;20.20;99.90;;;18.65;100.00;99905.59;3594011;22;107378;-82
2021/07/15 02:26:15;;;;;;;2.53;1.42;;;19.00;99.90;;;18.67;100.00;99909.97;3577125;39;100061;-81
2021/07/15 02:28:42;;;;;;;1.92;1.45;;;19.00;99.90;;;18.62;100.00;99903.31;3559582;22;107328;-87
2021/07/15 02:31:15;;;;;;;1.55;1.40;;;19.00;99.90;;;18.66;100.00;99903.72;3618584;22;101924;-86
2021/07/15 02:33:46;;;;;;;1.70;1.15;;;18.90;99.90;;;18.57;100.00;99903.09;3761976;22;105655;-87
2021/07/15 02:36:14;;;;;;;2.47;1.45;;;18.90;99.90;;;18.57;100.00;99910.41;3566078;22;107584;-82
2021/07/15 02:38:47;;;;;;;1.88;1.27;;;18.90;99.90;;;18.57;100.00;99915.81;3550230;39;100925;-82
2021/07/15 02:41:14;;;;;;;3.40;1.45;;;18.90;99.90;;;18.48;100.00;99917.13;3597479;22;106688;-87
2021/07/15 02:43:41;;;;;;;1.17;1.08;;;18.80;99.90;;;18.45;100.00;99912.97;3544975;39;100176;-84
2021/07/15 02:46:08;;;;;;;2.95;1.40;;;19.70;99.90;;;18.41;100.00;99922.59;3549928;22;105131;-81
2021/07/15 02:48:35;;;;;;;2.40;1.20;;;18.70;99.90;;;18.35;100.00;99928.03;3592124;22;106410;-82
2021/07/15 02:51:02;;;;;;;1.27;1.10;;;19.90;99.90;;;18.35;100.00;99928.03;3582841;22;103317;-86
2021/07/15 02:53:29;;;;;;;2.78;1.42;;;18.60;99.90;;;18.35;100.00;99923.47;3606933;22;104281;-88
2021/07/15 02:56:45;;;;;;;1.65;1.13;;;18.60;99.90;;;18.35;100.00;99920.75;3600738;22;105541;-81
2021/07/15 03:00:03;;;;;;;1.20;1.10;;;18.60;99.90;;;18.29;100.00;99921.63;3578528;39;101759;-81
2021/07/15 03:03:21;;;;;;;1.63;1.25;;;18.50;99.90;;;18.19;100.00;99930.22;3568451;39;101646;-87
2021/07/15 03:06:44;;;;;;;2.38;1.60;;;18.50;99.90;;;18.20;100.00;99931.03;3595251;22;104679;-82
2021/07/15 03:12:18;;;;;;;10.50;1.90;;;18.40;99.90;;;18.20;100.00;99931.03;3647076;22;105172;-88
2021/07/15 03:14:56;;;;;;;1.85;1.42;;;18.20;99.90;;;18.22;100.00;99931.66;3594566;22;104349;-82
2021/07/15 03:17:28;;;;;;;1.17;1.05;;;18.40;99.90;;;18.27;100.00;99927.25;3549253;39;100715;-86
2021/07/15 03:19:59;;;;;;;1.88;1.05;;;18.40;99.90;;;18.25;100.00;99929.34;3547385;39;100223;-82
2021/07/15 03:22:30;;;;;;;1.60;1.17;;;18.40;99.90;;;18.31;100.00;99941.19;3562826;22;103127;-82
2021/07/15 03:25:03;;;;;;;1.10;0.93;;;18.50;99.90;;;18.30;100.00;99929.50;3535907;39;103242;-81
2021/07/15 03:27:36;;;;;;;2.13;1.65;;;18.50;99.90;;;18.37;100.00;99932.19;3560566;39;100392;-86
2021/07/15 03:30:07;;;;;;;3.45;1.50;;;19.80;99.90;;;18.38;100.00;99927.63;3582113;22;105558;-83
2021/07/15 03:32:37;;;;;;;1.08;0.98;;;18.60;99.90;;;18.36;100.00;99922.41;3573128;39;101121;-86
2021/07/15 03:35:06;;;;;;;2.95;1.60;;;18.60;99.90;;;18.31;100.00;99925.75;3551080;22;106097;-82
2021/07/15 03:37:36;;;;;;;1.33;1.23;;;18.60;99.90;;;18.30;100.00;99928.69;3688201;22;104944;-85
2021/07/15 03:40:41;;;;;;;2.05;1.15;;;19.80;99.90;;;18.31;100.00;99936.59;3691641;22;103675;-87
2021/07/15 03:43:56;;;;;;;1.80;1.13;;;18.60;99.90;;;18.26;100.00;99947.28;3531866;39;101608;-86
2021/07/15 03:46:33;;;;;;;1.63;1.33;;;19.10;99.90;;;18.40;100.00;99955.31;3341285;22;104991;-86
2021/07/15 03:49:02;;;;;;;3.50;1.25;;;18.50;99.90;;;18.42;100.00;99964.06;3642607;22;104412;-87
2021/07/15 03:51:29;;;;;;;1.63;1.10;;;18.90;99.90;;;18.34;100.00;99967.00;3573521;22;102147;-87
2021/07/15 03:53:57;;;;;;;2.00;1.42;;;19.70;99.90;;;18.40;100.00;99956.16;3637746;22;104756;-82
2021/07/15 03:56:26;;;;;;;1.48;1.08;;;18.60;99.90;;;18.43;100.00;99957.56;3603504;22;105020;-86
2021/07/15 03:59:00;;;;;;;2.00;1.45;;;18.70;99.90;;;18.31;100.00;99960.97;3643002;22;101698;-86
2021/07/15 04:01:31;;;;;;;1.45;1.13;;;18.70;99.90;;;18.47;100.00;99956.09;3633721;22;101239;-85
2021/07/15 04:04:01;;;;;;;2.75;1.27;;;18.50;99.90;;;18.44;100.00;99960.06;3701181;22;107174;-86
2021/07/15 04:07:07;;;;;;;1.13;1.10;;;18.70;99.90;;;18.57;100.00;99957.28;3636997;22;106726;-82
2021/07/15 04:09:46;;;;;;;1.27;1.00;;;18.80;99.90;;;18.53;100.00;99964.22;3575703;22;107573;-86
2021/07/15 04:12:14;;;;;;;1.95;1.75;;;18.80;99.90;;;18.59;100.00;99957.94;3622386;22;107367;-82
2021/07/15 04:15:38;;;;;;;1.52;1.42;;;18.80;99.90;;;18.62;100.00;99962.94;3639691;22;100889;31
2021/07/15 04:18:17;;;;;;;2.20;1.80;;;18.90;99.90;;;18.54;100.00;99965.03;3582685;22;105207;-85
2021/07/15 04:21:21;;;;;;;1.63;1.52;;;19.70;99.90;;;18.53;100.00;99966.09;3546933;22;105350;-82
2021/07/15 04:24:34;;;;;;;1.17;1.08;;;18.90;99.90;;;18.54;100.00;99975.88;3602954;22;100173;-86
2021/07/15 04:27:12;;;;;;;1.27;1.13;;;19.80;99.90;;;18.49;100.00;99978.41;3646136;22;101421;-87
2021/07/15 04:29:41;;;;;;;6.72;1.27;;;19.00;99.90;;;18.48;100.00;99985.69;3538504;39;103445;-85
2021/07/15 04:32:23;;;;;;;1.38;0.98;;;18.90;99.90;;;18.49;100.00;99989.22;3556979;39;99937;-85
2021/07/15 04:34:51;;;;;;;2.05;1.50;;;18.90;99.90;;;18.43;100.00;99992.78;3576754;22;105843;-87
2021/07/15 04:37:20;;;;;;;1.67;1.20;;;18.10;99.90;;;18.29;100.00;99997.47;3578838;22;102273;-82
2021/07/15 04:39:48;;;;;;;3.15;1.63;;;18.80;99.90;;;18.26;100.00;99997.91;3566126;22;102573;-82
2021/07/15 04:42:17;;;;;;;1.27;1.17;;;18.80;99.90;;;18.20;100.00;100004.16;3553228;39;100948;-86
2021/07/15 04:44:47;;;;;;;2.28;1.48;;;18.00;99.90;;;18.33;100.00;100008.69;3588163;22;105637;-82
2021/07/15 04:47:20;;;;;;;2.25;1.50;;;18.50;99.90;;;18.35;100.00;100015.56;3555782;39;102530;-82
2021/07/15 04:49:47;;;;;;;1.10;1.05;;;18.50;99.90;;;18.42;100.00;100021.75;3644299;22;104298;-87
2021/07/15 04:52:15;;;;;;;2.38;1.55;;;19.60;99.90;;;18.28;100.00;100022.88;3634362;22;105982;31
2021/07/15 04:55:19;;;;;;;1.88;1.77;;;18.40;99.90;;;18.40;100.00;100017.63;3665420;22;105857;-86
2021/07/15 04:58:34;;;;;;;1.77;1.58;;;18.40;99.90;;;18.43;100.00;100015.28;3554213;39;103463;-82
2021/07/15 05:01:46;;;;;;;1.58;1.25;;;18.40;99.90;;;18.51;100.00;100017.78;3544227;39;103216;-86
2021/07/15 05:05:01;;;;;;;1.63;1.48;;;18.40;99.90;;;18.67;100.00;100015.66;3545829;39;102504;-81
2021/07/15 05:08:12;;;;;;;8.15;2.28;;;18.50;99.90;;;18.71;100.00;100016.84;3627873;22;104144;-85
2021/07/15 05:11:25;;;;;;;2.47;1.70;;;18.50;99.90;;;18.71;100.00;100022.28;3557275;39;102109;-82
2021/07/15 05:14:41;;;;;;;4.60;2.05;;;18.50;99.90;;;18.79;100.00;100030.19;3535251;39;101256;-81
2021/07/15 05:17:52;;;;;;;3.38;1.40;;;18.90;99.90;;;18.71;100.00;100033.94;3550486;39;100177;-85
2021/07/15 05:21:06;;;;;;;1.90;1.45;;;18.70;99.90;;;18.78;100.00;100036.63;3615577;22;104479;-85
2021/07/15 05:24:17;;;;;;;2.03;1.30;;;18.70;99.90;;;18.73;100.00;100034.56;3601737;22;101831;-85
2021/07/15 05:27:29;;;;;;;1.30;1.20;;;18.80;99.90;;;18.70;100.00;100026.88;3608280;22;101340;-82
2021/07/15 05:30:43;;;;;;;2.55;1.55;;;18.80;99.90;;;18.74;100.00;100030.81;3594678;22;105646;-84
2021/07/15 05:33:55;;;;;;;1.85;1.27;;;18.90;99.90;;;18.98;100.00;100024.63;3520034;39;99925;-86
2021/07/15 05:37:10;;;;;;;1.98;1.25;;;18.90;99.90;;;19.04;100.00;100008.53;3638524;22;107722;-86
2021/07/15 05:42:21;;;;;;;1.52;0.98;;;19.10;99.90;;;19.18;100.00;100004.63;3637914;22;104252;-83
2021/07/15 05:44:48;;;;;;;1.65;1.23;;;19.10;99.90;;;19.29;100.00;100002.03;3652380;22;104243;-85
2021/07/15 05:47:15;;;;;;;2.28;1.73;;;19.20;99.90;;;19.56;100.00;99988.28;3542712;39;103044;-83
2021/07/15 05:50:19;;;;;;;2.38;1.52;;;19.20;99.90;;;19.68;100.00;99978.31;3633499;22;106064;-86
2021/07/15 05:53:32;;;;;;;2.22;1.70;;;19.30;99.90;;;20.28;100.00;99970.31;3589523;22;105885;-88
2021/07/15 05:56:44;;;;;;;1.55;1.15;;;19.50;99.90;;;20.42;100.00;99955.53;3552528;39;100770;-85
2021/07/15 05:59:55;;;;;;;1.25;0.90;;;19.70;99.90;;;20.68;100.00;99933.41;3628088;22;103362;-83
2021/07/15 06:03:07;;;;;;;2.15;1.13;;;20.00;99.90;;;20.39;100.00;99926.13;3605545;22;104333;-82
2021/07/15 06:06:19;;;;;;;4.85;1.20;;;20.30;99.90;;;20.81;100.00;99924.22;3599407;22;101701;-84
2021/07/15 06:09:32;;;;;;;3.10;1.38;;;21.40;99.90;;;21.34;100.00;99924.19;3613631;22;106269;-86
2021/07/15 06:12:44;;;;;;;7.20;1.63;;;21.10;99.90;;;21.88;100.00;99925.63;3564920;39;100492;-84
2021/07/15 06:15:55;;;;;;;1.65;1.35;;;21.10;99.90;;;21.33;100.00;99924.41;3565912;39;101316;-84
2021/07/15 06:19:07;;;;;;;0.93;0.93;;;21.40;99.90;;;21.28;100.00;99927.84;3570420;39;100276;-86
2021/07/15 06:22:20;;;;;;;1.15;1.00;;;21.60;99.90;;;21.71;100.00;99923.91;3591143;22;106326;-83
2021/07/15 06:25:34;;;;;;;0.88;0.75;;;21.90;99.90;;;22.36;100.00;99929.91;3600803;22;101964;-84
2021/07/15 06:28:46;;;;;;;2.03;0.90;;;22.10;99.90;;;22.44;100.00;99939.56;3577119;39;101273;-86
2021/07/15 06:31:57;;;;;;;1.75;1.15;;;22.40;99.90;;;22.65;100.00;99935.31;3583287;39;100570;-86
2021/07/15 06:35:09;;;;;;;0.98;0.88;;;22.70;99.90;;;23.03;100.00;99924.56;3575322;39;100059;-86
2021/07/15 06:38:22;;;;;;;1.55;1.45;;;22.90;99.90;;;22.04;100.00;99924.09;3549744;39;103123;-83
2021/07/15 06:41:36;;;;;;;1.35;1.10;;;23.20;99.90;;;22.27;100.00;99927.78;3561352;39;100795;-83
2021/07/15 06:44:48;;;;;;;1.50;1.10;;;23.50;99.90;;;21.98;100.00;99924.19;3616190;22;100166;-84
2021/07/15 06:47:24;;;;;;;2.83;1.13;;;23.70;99.90;;;22.88;100.00;99922.41;3595554;22;104442;-87
2021/07/15 06:49:51;;;;;;;1.35;1.13;;;24.20;99.90;;;22.89;100.00;99921.31;3572629;39;101371;-82
2021/07/15 06:52:18;;;;;;;1.45;0.90;;;24.00;99.90;;;23.74;100.00;99914.69;3566954;39;101177;-86
2021/07/15 06:54:45;;;;;;;1.23;0.80;;;24.30;99.90;;;23.99;100.00;99916.94;3615571;22;101751;-84
2021/07/15 06:57:13;;;;;;;1.20;0.70;;;24.90;99.90;;;24.38;100.00;99917.69;3581010;39;100092;-84
2021/07/15 06:59:40;;;;;;;1.15;1.05;;;24.70;99.90;;;23.02;100.00;99922.06;3568266;39;100806;-85
2021/07/15 07:02:08;;;;;;;1.05;0.80;;;25.00;99.90;;;22.28;100.00;99930.28;3570209;39;101041;-83
2021/07/15 07:04:35;;;;;;;2.10;0.95;;;25.00;98.90;;;22.43;100.00;99938.75;3568446;39;100763;-84
2021/07/15 07:07:03;;;;;;;6.63;0.80;;;25.00;98.10;;;22.30;100.00;99933.59;3572788;39;100182;-83
2021/07/15 07:09:30;;;;;;;2.20;1.20;;;24.90;97.70;;;22.55;100.00;99936.78;3637598;22;105503;-85
2021/07/15 07:11:57;;;;;;;1.75;1.10;;;24.80;97.50;;;23.04;100.00;99937.13;3556872;39;102604;-84
2021/07/15 07:15:02;;;;;;;1.77;1.20;;;25.20;97.70;;;22.91;100.00;99935.56;3687420;22;105329;-86
2021/07/15 07:17:38;;;;;;;0.98;0.82;;;25.40;97.30;;;22.59;100.00;99939.88;3601151;22;99932;-85
2021/07/15 07:20:08;;;;;;;1.75;0.95;;;25.60;97.40;;;22.83;100.00;99935.13;3553691;39;100443;-83
2021/07/15 07:22:36;;;;;;;0.77;0.77;;;24.80;96.60;;;23.17;100.00;99938.69;3538143;39;101355;-86
2021/07/15 07:25:06;;;;;;;0.43;0.40;;;24.80;96.10;;;23.85;100.00;99915.69;3548358;39;100908;-83
2021/07/15 07:27:33;;;;;;;2.20;0.65;;;25.00;95.50;;;24.90;100.00;99920.66;3582115;22;99961;-87
2021/07/15 07:30:02;;;;;;;0.82;0.50;;;25.40;95.50;;;24.92;100.00;99925.88;3601495;22;101886;-84
2021/07/15 07:32:30;;;;;;;0.75;0.60;;;25.60;95.00;;;24.23;100.00;99928.47;3540024;39;101088;-86
2021/07/15 07:34:57;;;;;;;1.02;0.90;;;26.00;93.70;;;24.05;100.00;99935.06;3540954;39;100241;-88
2021/07/15 07:37:24;;;;;;;1.02;0.77;;;27.20;92.00;;;24.68;100.00;99936.31;3628763;22;106638;-84
2021/07/15 07:39:52;;;;;;;0.65;0.65;;;26.40;91.30;;;23.64;100.00;99937.25;3542690;39;103328;-86
2021/07/15 07:42:19;;;;;;;0.45;0.45;;;27.30;90.30;;;24.13;100.00;99936.50;3552063;22;105120;-85
2021/07/15 07:44:46;;;;;;;0.60;0.30;;;26.80;88.90;;;25.13;100.00;99935.91;3556904;39;100810;-85
2021/07/15 07:47:15;;;;;;;0.75;0.50;;;27.80;88.40;;;24.18;100.00;99934.66;3559668;39;100096;-84
2021/07/15 07:49:42;;;;;;;1.10;0.55;;;27.40;85.60;;;24.27;100.00;99937.78;3567033;39;101285;-84
2021/07/15 07:52:09;;;;;;;1.00;0.68;;;27.30;83.40;;;25.26;100.00;99935.47;3555731;39;101319;-84
2021/07/15 07:54:36;;;;;;;2.50;0.63;;;27.80;82.20;;;24.64;100.00;99941.47;3548972;39;102581;-85
2021/07/15 07:57:04;;;;;;;0.63;0.47;;;28.00;80.70;;;25.14;100.00;99937.56;3562557;39;99905;-84
2021/07/15 07:59:32;;;;;;;0.40;0.40;;;28.10;78.80;;;25.64;100.00;99944.50;3566120;39;100322;-83
2021/07/15 08:01:59;;;;;;;0.85;0.52;;;28.40;77.70;;;25.52;100.00;99931.00;3563965;39;101367;-83
2021/07/15 08:04:28;;;;;;;0.68;0.57;;;28.50;76.20;;;25.49;100.00;99933.41;3574475;39;100376;-86
2021/07/15 08:06:55;;;;;;;0.60;0.55;;;29.50;75.00;;;24.78;100.00;99930.13;3564436;39;100808;-84
2021/07/15 08:09:24;;;;;;;0.45;0.45;;;28.80;71.00;;;24.72;100.00;99933.91;3553005;39;102116;-84
2021/07/15 08:11:54;;;;;;;0.52;0.52;;;28.80;69.60;;;24.99;100.00;99929.22;3566851;39;101016;-86
2021/07/15 08:14:22;;;;;;;0.45;0.45;;;28.80;69.20;;;25.56;100.00;99931.28;3558385;39;102728;-86
2021/07/15 08:16:49;;;;;;;1.02;0.65;;;29.20;68.70;;;25.27;100.00;99928.09;3593978;22;100923;-83
2021/07/15 08:19:17;;;;;;;0.73;0.50;;;28.70;66.90;;;25.31;100.00;99923.75;3600203;22;102985;-83
2021/07/15 08:21:45;;;;;;;8.50;0.63;;;29.50;68.20;;;25.48;100.00;99931.78;3650018;22;101271;-83
2021/07/15 08:24:12;;;;;;;1.00;0.50;;;28.70;68.10;;;25.68;100.00;99926.47;3568417;39;102355;-86
2021/07/15 08:26:39;;;;;;;1.02;0.50;;;28.80;68.00;;;25.10;100.00;99921.94;3562443;39;99950;-85
2021/07/15 08:29:06;;;;;;;0.40;0.40;;;28.80;66.60;;;25.32;100.00;99918.00;3559963;39;101756;-86
2021/07/15 08:31:33;;;;;;;0.40;0.28;;;28.90;66.40;;;26.10;100.00;99913.47;3590812;22;103018;-82
2021/07/15 08:34:00;;;;;;;0.60;0.55;;;29.20;66.60;;;25.28;100.00;99914.13;3550697;39;100775;-87
2021/07/15 08:36:29;;;;;;;0.63;0.60;;;29.90;66.10;;;25.95;100.00;99915.34;3545175;39;100300;-84
2021/07/15 08:38:58;;;;;;;1.98;0.50;;;29.40;65.00;;;25.64;100.00;99917.94;3545159;39;100904;-87
2021/07/15 08:41:25;;;;;;;0.60;0.47;;;29.50;63.60;;;26.52;100.00;99915.28;3546251;39;101203;-85
2021/07/15 08:43:54;;;;;;;0.90;0.50;;;29.60;63.50;;;26.87;100.00;99919.97;3532326;39;101136;-86
2021/07/15 08:46:24;;;;;;;0.40;0.30;;;29.70;63.20;;;26.53;100.00;99922.41;3589054;22;100895;-84
2021/07/15 08:48:54;;;;;;;0.68;0.40;;;30.00;61.80;;;26.23;100.00;99931.34;3560761;39;101256;-86
2021/07/15 08:51:21;;;;;;;0.40;0.40;;;30.20;61.10;;;25.73;100.00;99930.03;3558376;39;103001;-87
2021/07/15 08:53:50;;;;;;;0.85;0.80;;;30.30;60.30;;;26.32;100.00;99935.25;3555888;39;100440;-83
2021/07/15 08:59:04;;;;;;;0.55;0.55;;;30.40;59.60;;;25.84;100.00;99943.81;3551368;39;100919;-85
2021/07/15 09:01:33;;;;;;;0.20;0.20;;;30.50;58.80;;;25.74;100.00;99931.69;3547674;39;103135;-84
2021/07/15 09:04:36;;;;;;;0.73;0.50;;;30.80;59.00;;;25.89;100.00;99947.38;3641061;22;102730;-84
2021/07/15 09:07:13;;;;;;;0.50;0.40;;;31.30;58.90;;;26.45;100.00;99942.97;3612272;22;100100;-83
2021/07/15 09:09:40;;;;;;;0.40;0.40;;;31.10;59.00;;;26.69;100.00;99948.78;3575917;39;100785;-86
2021/07/15 09:12:09;;;;;;;0.45;0.30;;;31.30;58.60;;;26.58;100.00;99952.59;3583596;22;101829;-83
2021/07/15 09:14:49;;;;;;;0.65;0.65;;;30.60;58.00;;;26.26;100.00;99946.44;3547097;39;100628;-84
2021/07/15 09:17:17;;;;;;;0.75;0.63;;;31.00;58.10;;;25.42;100.00;99950.09;3542245;39;100190;-83
2021/07/15 09:19:44;;;;;;;0.90;0.65;;;31.30;57.80;;;25.46;100.00;99943.00;3551091;39;100605;-84
2021/07/15 09:22:13;;;;;;;0.32;0.32;;;30.60;57.30;;;25.95;100.00;99951.00;3576843;22;104796;-83
2021/07/15 09:24:44;;;;;;;1.33;0.80;;;30.60;57.10;;;25.51;100.00;99943.03;3549317;39;100500;-85
2021/07/15 09:27:16;;;;;;;0.80;0.40;;;30.60;56.50;;;25.81;100.00;99944.34;3555109;39;100411;-86
2021/07/15 09:29:45;;;;;;;0.68;0.43;;;30.60;56.30;;;25.46;100.00;99947.66;3538749;39;100857;-84
2021/07/15 09:32:17;;;;;;;1.10;0.80;;;30.60;56.10;;;26.35;100.00;99950.34;3527342;39;101371;-86
2021/07/15 09:34:44;;;;;;;0.98;0.98;;;30.50;56.30;;;26.09;100.00;99950.22;3536343;39;102864;-81
2021/07/15 09:37:16;;;;;;;0.88;0.70;;;30.60;56.30;;;26.02;100.00;99951.56;3532938;39;100165;-83
2021/07/15 09:39:49;;;;;;;0.93;0.55;;;30.50;56.30;;;25.71;100.00;99951.41;3543574;39;102986;-84
2021/07/15 09:42:20;;;;;;;1.00;0.47;;;30.50;55.60;;;26.44;100.00;99952.31;3556767;39;101530;-84
2021/07/15 09:44:51;;;;;;;1.00;0.65;;;30.50;56.00;;;25.76;100.00;99958.81;3549187;39;102669;-84
2021/07/15 09:47:33;;;;;;;0.82;0.60;;;30.60;55.60;;;26.23;100.00;99958.75;3591530;22;100033;-86
2021/07/15 09:50:58;;;;;;;0.50;0.38;;;30.70;55.50;;;26.11;100.00;99964.47;3587781;22;103969;-85
2021/07/15 09:54:20;;;;;;;0.80;0.80;;;30.80;54.80;;;26.43;100.00;99966.28;3541251;39;101976;-84
2021/07/15 09:57:50;;;;;;;1.83;0.80;;;30.70;54.50;;;26.09;100.00;99971.31;3535224;39;101290;-86
2021/07/15 10:01:10;;;;;;;1.33;0.88;;;30.60;54.70;;;26.83;100.00;99969.09;3590675;22;102167;-88
2021/07/15 10:04:30;;;;;;;0.70;0.70;;;30.40;55.40;;;26.43;100.00;99966.28;3551422;39;101042;-82
2021/07/15 10:07:42;;;;;;;0.88;0.85;;;30.50;55.40;;;26.83;100.00;99974.59;3550217;39;103640;-84
2021/07/15 10:13:50;;;;;;;0.90;0.80;;;30.70;55.90;;;27.06;100.00;99978.78;3574021;22;102001;-83
2021/07/15 10:17:05;;;;;;;1.25;1.10;;;30.90;55.50;;;28.32;100.00;99974.13;3588912;22;103299;-85
2021/07/15 10:20:34;;;;;;;1.20;0.55;;;31.30;55.60;;;28.52;100.00;99973.22;3550151;39;101456;-84
2021/07/15 10:23:57;;;;;;;0.77;0.70;;;31.50;54.80;;;27.86;100.00;99962.47;3548791;39;100317;-87
2021/07/15 10:27:11;;;;;;;1.23;0.95;;;32.10;54.90;;;26.99;100.00;99980.94;3540969;39;100753;-86
2021/07/15 10:30:24;;;;;;;2.65;1.08;;;32.30;52.70;;;26.30;100.00;99981.31;3536100;39;102789;-85
2021/07/15 10:33:39;;;;;;;1.35;1.00;;;32.20;51.40;;;26.60;100.00;99969.59;3568625;22;105433;-82
2021/07/15 10:36:53;;;;;;;1.25;0.65;;;31.80;51.80;;;27.02;100.00;99972.16;3541729;39;100495;-84
2021/07/15 10:40:08;;;;;;;1.95;1.17;;;31.70;52.20;;;27.02;100.00;99976.84;3555011;39;100346;-83
2021/07/15 10:43:20;;;;;;;2.58;1.25;;;31.60;51.90;;;26.21;100.00;99971.91;3554721;39;100592;-85
2021/07/15 10:46:33;;;;;;;1.50;1.02;;;31.60;51.50;;;26.84;100.00;99967.16;3553199;39;101069;-86
2021/07/15 10:49:47;;;;;;;1.30;0.82;;;31.30;52.30;;;26.82;100.00;99978.44;3587186;22;101411;-86
2021/07/15 10:53:02;;;;;;;0.93;0.60;;;31.30;52.90;;;26.95;100.00;99977.13;3647936;22;103422;-85
2021/07/15 10:56:15;;;;;;;1.65;0.63;;;31.20;53.10;;;26.83;100.00;99976.50;3554195;39;100144;-83
2021/07/15 10:59:40;;;;;;;0.85;0.70;;;31.20;53.20;;;26.87;100.00;99972.13;3560968;39;101359;-84
2021/07/15 11:02:54;;;;;;;0.63;0.57;;;31.20;53.10;;;26.52;100.00;99966.56;3553032;39;100725;-85
2021/07/15 11:06:14;;;;;;;0.47;0.45;;;31.30;53.00;;;27.22;100.00;99968.59;3591404;22;104940;-83
2021/07/15 11:09:44;;;;;;;0.70;0.70;;;31.90;53.20;;;27.01;100.00;99976.00;3549557;39;101610;-86
2021/07/15 11:16:39;;;;;;;1.13;0.80;;;32.00;50.30;;;27.30;100.00;99965.31;3545346;39;100454;-87
2021/07/15 11:20:19;;;;;;;0.88;0.88;;;32.10;50.70;;;29.39;100.00;99966.03;3529999;39;100401;-86
2021/07/15 11:23:47;;;;;;;0.70;0.57;;;32.50;51.10;;;29.13;100.00;99954.38;3545364;39;100809;-85
2021/07/15 11:27:31;;;;;;;1.40;0.45;;;33.20;50.80;;;29.19;100.00;99964.22;3540893;39;101997;-84
2021/07/15 11:30:44;;;;;;;0.65;0.52;;;33.90;50.00;;;25.77;100.00;99960.47;3543473;39;102514;-81